Time;durP1;ratioP1;P1;durP2;ratioP2;P2;SDS_P1;SDS_P2;PMS_P1;PMS_P2;Temp;Humidity;BMP_temperature;BMP_pressure;BME280_temperature;BME280_humidity;BME280_pressure;Samples;Min_cycle;Max_cycle;Signal;HPM_P1;HPM_P2
2024/04/01 09:19:07;;;;;;;8.13;3.10;;;;;;;7.81;100.00;94750.44;2100331;27;20544;-64
2024/04/01 09:21:50;;;;;;;1.95;0.95;;;;;;;7.94;100.00;94740.09;2084040;28;20572;-64
2024/04/01 09:22:51;;;;;;;2.90;1.50;;;;;;;7.88;100.00;94743.06;2087545;28;20238;-65
2024/04/01 09:25:16;;;;;;;4.68;2.60;;;;;;;7.97;100.00;94759.84;2087302;28;20560;-64
2024/04/01 09:26:17;;;;;;;6.90;3.10;;;;;;;8.02;100.00;94760.38;2087058;28;20196;-65
2024/04/01 09:27:18;;;;;;;4.80;1.90;;;;;;;8.08;100.00;94760.00;2079325;28;20208;-65
2024/04/01 09:28:19;;;;;;;4.50;1.80;;;;;;;8.14;100.00;94771.78;2090253;28;20873;-65
2024/04/01 09:29:21;;;;;;;5.35;2.60;;;;;;;8.17;99.28;94766.38;2084965;28;20262;-65
2024/04/01 09:30:22;;;;;;;16.23;7.40;;;;;;;8.27;99.40;94762.22;2074136;28;20240;-65
2024/04/01 09:31:22;;;;;;;27.63;9.88;;;;;;;8.28;98.21;94771.69;2076600;28;20205;-65
2024/04/01 09:32:23;;;;;;;12.90;5.10;;;;;;;8.26;96.43;94778.75;2079178;28;20201;-64
2024/04/01 09:34:33;;;;;;;69.90;22.63;;;;;;;8.37;97.45;94790.22;2102576;27;20554;-64
2024/04/01 10:13:24;;;;;;;4.00;2.00;;;;;;;7.95;91.67;94844.91;2085503;28;20623;-64
2024/04/01 10:16:10;;;;;;;6.75;2.30;;;;;;;8.08;91.98;94843.19;2083548;28;20561;-64
2024/04/01 10:17:18;;;;;;;1.80;0.90;;;;;;;8.20;91.29;94856.34;2082522;28;20274;-64
2024/04/01 10:19:45;;;;;;;2.85;1.25;;;;;;;8.28;91.03;94854.91;2101974;27;20557;-64
2024/04/01 10:21:09;;;;;;;1.50;0.70;;;;;;;8.25;89.95;94865.53;2089377;28;20855;-64
2024/04/01 10:22:32;;;;;;;1.92;0.80;;;;;;;8.26;88.65;94850.75;2076957;28;20271;-65
2024/04/01 10:23:41;;;;;;;1.65;0.85;;;;;;;8.33;88.43;94852.84;2081255;28;20216;-64
2024/04/01 10:24:48;;;;;;;14.55;5.15;;;;;;;8.37;88.94;94852.63;2087934;28;20289;-64
2024/04/01 10:26:00;;;;;;;5.85;2.60;;;;;;;8.51;89.60;94847.44;2072931;28;20222;-65
2024/04/01 10:27:21;;;;;;;14.48;6.50;;;;;;;8.58;89.73;94856.50;2072235;28;20229;-64
2024/04/01 10:28:24;;;;;;;6.00;2.60;;;;;;;8.61;88.50;94861.50;2078509;28;20255;-64
2024/04/01 10:29:49;;;;;;;5.40;2.00;;;;;;;8.51;85.72;94852.63;2084181;28;20913;-64
2024/04/01 10:30:55;;;;;;;1.40;0.65;;;;;;;8.44;85.30;94870.38;2086283;28;20576;-64
2024/04/01 10:32:24;;;;;;;8.60;3.05;;;;;;;8.39;85.47;94885.41;2078219;28;20209;-65
2024/04/01 11:12:41;;;;;;;2.83;1.35;;;;;;;8.22;85.37;94993.13;2101635;27;20595;-64
2024/04/01 11:14:49;;;;;;;1.05;0.60;;;;;;;8.04;83.53;95000.28;2086380;28;20557;-64
2024/04/01 11:16:53;;;;;;;1.58;0.70;;;;;;;7.94;82.19;94992.22;2084383;28;20567;-64
2024/04/01 11:19:17;;;;;;;1.10;0.50;;;;;;;7.89;82.56;95024.63;2090965;28;21203;-64
2024/04/01 11:34:20;;;;;;;1.48;0.70;;;;;;;7.40;86.91;95070.69;2090726;28;20564;-64
2024/04/01 11:35:26;;;;;;;1.08;0.57;;;;;;;7.43;87.85;95067.13;2093388;28;20245;-64
2024/04/01 11:36:30;;;;;;;1.10;0.50;;;;;;;7.51;88.79;95064.91;2074763;28;20226;-64
2024/04/01 11:37:38;;;;;;;1.10;0.50;;;;;;;7.56;87.23;95075.03;2068651;28;20203;-64
2024/04/01 11:39:03;;;;;;;1.20;0.70;;;;;;;7.90;87.79;95075.66;2074606;28;20198;-65
2024/04/01 11:40:11;;;;;;;1.95;0.68;;;;;;;7.79;86.94;95071.09;2073810;28;20209;-65
2024/04/01 11:41:16;;;;;;;1.65;0.88;;;;;;;8.12;88.64;95064.81;2059900;28;20229;-64
2024/04/01 11:42:21;;;;;;;1.20;0.60;;;;;;;8.15;87.31;95073.28;2067254;28;20205;-64
2024/04/01 11:43:26;;;;;;;1.45;0.60;;;;;;;8.23;86.17;95074.56;2066766;28;20274;-64
2024/04/01 11:44:28;;;;;;;1.00;0.50;;;;;;;8.21;85.84;95077.25;2068740;28;20226;-64
2024/04/01 11:45:35;;;;;;;1.10;0.60;;;;;;;8.25;84.46;95075.31;2065328;28;20225;-64
2024/04/01 11:46:39;;;;;;;1.20;0.60;;;;;;;8.21;84.29;95068.63;2059139;28;20258;-64
2024/04/01 11:47:42;;;;;;;1.85;0.70;;;;;;;8.28;84.87;95070.75;2066412;28;20209;-64
2024/04/01 11:48:43;;;;;;;2.25;0.82;;;;;;;8.27;84.33;95078.66;2066622;28;20212;-64
2024/04/01 11:49:44;;;;;;;1.10;0.60;;;;;;;8.37;85.14;95074.56;2064488;28;20218;-64
2024/04/01 11:50:52;;;;;;;3.10;0.73;;;;;;;8.40;84.55;95070.94;2056509;28;20236;-64
2024/04/01 11:51:53;;;;;;;1.55;0.63;;;;;;;8.34;83.59;95073.00;2060948;28;20261;-64
2024/04/01 11:53:01;;;;;;;1.03;0.57;;;;;;;8.46;83.64;95088.81;2059878;28;20245;-64
2024/04/01 11:54:03;;;;;;;1.33;0.65;;;;;;;8.60;83.51;95098.38;2061252;28;21009;-64
2024/04/01 11:55:13;;;;;;;1.00;0.60;;;;;;;8.37;81.82;95094.53;2062438;28;20567;-64
2024/04/01 11:56:14;;;;;;;1.00;0.50;;;;;;;8.40;82.36;95091.75;2058090;28;20587;-64
2024/04/01 11:57:22;;;;;;;1.10;0.50;;;;;;;8.57;82.72;95099.41;2060461;28;20218;-65
2024/04/01 11:58:24;;;;;;;3.28;0.55;;;;;;;8.73;82.33;95098.47;2059164;28;20203;-64
2024/04/01 11:59:29;;;;;;;3.55;0.70;;;;;;;8.68;81.82;95088.31;2057802;28;20222;-64
2024/04/01 12:00:29;;;;;;;1.10;0.50;;;;;;;8.66;81.51;95106.63;2050306;28;20337;-64
2024/04/01 12:01:34;;;;;;;1.40;0.50;;;;;;;8.69;81.82;95118.63;2062054;28;20257;-64
2024/04/01 12:02:35;;;;;;;1.55;0.70;;;;;;;8.77;81.64;95112.94;2060383;28;20249;-65
2024/04/01 12:03:40;;;;;;;1.10;0.60;;;;;;;8.61;80.03;95124.31;2061756;28;20214;-64
2024/04/01 12:04:40;;;;;;;1.10;0.50;;;;;;;8.65;80.05;95111.94;2059600;28;20210;-64
2024/04/01 12:06:04;;;;;;;1.10;0.60;;;;;;;8.82;80.33;95109.16;2058696;28;20262;-64
2024/04/01 12:07:05;;;;;;;1.48;0.77;;;;;;;9.04;80.68;95112.16;2063329;28;20213;-64
2024/04/01 12:08:06;;;;;;;3.25;0.90;;;;;;;8.95;79.82;95121.38;2058605;28;20209;-65
2024/04/01 12:09:11;;;;;;;1.80;1.17;;;;;;;8.76;80.11;95121.69;2061860;28;20218;-65
2024/04/01 12:10:14;;;;;;;1.50;0.65;;;;;;;8.71;81.67;95118.53;2062134;28;20198;-64
2024/04/01 12:11:15;;;;;;;1.50;0.60;;;;;;;8.70;81.07;95124.66;2062777;28;20221;-64
2024/04/01 12:12:16;;;;;;;2.00;0.80;;;;;;;8.68;81.05;95136.94;2062259;28;20222;-64
2024/04/01 12:13:25;;;;;;;1.90;0.60;;;;;;;8.78;80.69;95136.28;2061801;28;20569;-64
2024/04/01 12:14:27;;;;;;;1.08;0.60;;;;;;;8.76;80.51;95134.69;2060704;28;20478;-63
2024/04/01 12:15:28;;;;;;;1.30;0.60;;;;;;;8.89;80.23;95142.56;2053703;28;20223;-64
2024/04/01 12:16:33;;;;;;;2.10;0.90;;;;;;;8.73;79.59;95137.50;2066043;28;20201;-64
2024/04/01 12:17:37;;;;;;;1.10;0.60;;;;;;;8.37;79.05;95160.41;2064010;28;20305;-64
2024/04/01 12:18:44;;;;;;;5.45;1.90;;;;;;;8.35;79.93;95149.25;2058043;28;20210;-64
2024/04/01 12:19:45;;;;;;;3.30;2.20;;;;;;;8.43;80.59;95147.03;2058553;28;20221;-63
2024/04/01 12:20:51;;;;;;;1.83;0.70;;;;;;;8.34;80.28;95148.44;2064116;28;20223;-64
2024/04/01 12:21:51;;;;;;;1.30;0.60;;;;;;;8.38;79.82;95162.09;2057228;28;20244;-63
2024/04/01 12:22:52;;;;;;;1.10;0.60;;;;;;;8.43;80.02;95164.41;2056253;28;20245;-63
2024/04/01 12:23:54;;;;;;;1.20;0.60;;;;;;;8.44;79.82;95151.31;2058276;28;20217;-63
2024/04/01 12:24:57;;;;;;;1.60;0.80;;;;;;;8.74;79.76;95157.41;2056287;28;20211;-64
2024/04/01 12:26:10;;;;;;;2.15;1.23;;;;;;;8.94;79.62;95151.78;2064994;28;20218;-63
2024/04/01 12:27:11;;;;;;;1.75;0.70;;;;;;;9.07;78.90;95156.25;2065779;28;20208;-63
2024/04/01 12:28:12;;;;;;;1.40;0.50;;;;;;;8.99;78.51;95156.72;2061459;28;20221;-63
2024/04/01 12:29:14;;;;;;;1.23;0.50;;;;;;;8.98;78.38;95158.47;2042790;28;20208;-64
2024/04/01 12:30:16;;;;;;;2.17;0.50;;;;;;;8.95;77.75;95156.06;2052776;28;20727;-64
2024/04/01 12:31:19;;;;;;;1.30;0.50;;;;;;;8.93;77.54;95152.72;2058133;28;20214;-63
2024/04/01 12:32:20;;;;;;;1.65;0.70;;;;;;;8.76;77.33;95161.56;2057516;28;20639;-63
2024/04/01 12:33:21;;;;;;;1.15;0.60;;;;;;;8.71;77.37;95153.22;2056723;28;20200;-63
2024/04/01 12:34:21;;;;;;;1.13;0.60;;;;;;;8.73;78.19;95151.34;2065602;28;20210;-64
2024/04/01 12:35:23;;;;;;;1.10;0.60;;;;;;;8.61;78.30;95152.94;2064751;28;20214;-63
2024/04/01 12:36:24;;;;;;;1.10;0.60;;;;;;;8.70;77.80;95154.13;2058089;28;20218;-64
2024/04/01 12:37:25;;;;;;;2.58;0.70;;;;;;;8.97;77.98;95148.97;2064693;28;20672;-63
2024/04/01 12:38:31;;;;;;;1.20;0.60;;;;;;;9.52;77.45;95148.22;2057923;28;20213;-64
2024/04/01 12:39:41;;;;;;;1.00;0.50;;;;;;;9.45;75.38;95142.56;2057847;28;20214;-64
2024/04/01 12:40:46;;;;;;;1.55;0.60;;;;;;;9.29;75.39;95153.97;2061497;28;20619;-64
2024/04/01 12:41:48;;;;;;;1.48;0.73;;;;;;;9.44;75.73;95153.91;2061927;28;20225;-64
2024/04/01 12:42:50;;;;;;;1.60;0.60;;;;;;;9.40;76.28;95150.66;2056663;28;20207;-64
2024/04/01 12:43:51;;;;;;;1.35;0.50;;;;;;;9.07;75.44;95175.28;2065072;28;20671;-64
2024/04/01 12:44:53;;;;;;;1.10;0.60;;;;;;;8.91;76.48;95157.19;2056105;28;20230;-63
2024/04/01 12:45:56;;;;;;;1.15;0.55;;;;;;;8.83;76.36;95172.44;2053347;28;20219;-64
2024/04/01 12:46:57;;;;;;;1.30;0.60;;;;;;;8.88;77.40;95169.56;2056215;28;20207;-66
2024/04/01 12:48:09;;;;;;;1.33;0.60;;;;;;;8.93;76.57;95175.31;2056477;28;20211;-63
2024/04/01 12:49:13;;;;;;;1.35;0.50;;;;;;;8.95;76.97;95182.09;2056027;28;20441;-63
2024/04/01 12:50:15;;;;;;;1.10;0.50;;;;;;;9.05;76.48;95190.16;2052736;28;20200;-63
2024/04/01 12:51:16;;;;;;;1.00;0.40;;;;;;;9.22;75.70;95186.53;2052862;28;20206;-63
2024/04/01 12:52:28;;;;;;;1.20;0.50;;;;;;;9.20;76.10;95197.97;2052184;28;20215;-64
2024/04/01 12:53:50;;;;;;;1.10;0.50;;;;;;;9.03;76.88;95199.84;2057273;28;20222;-64
2024/04/01 12:54:50;;;;;;;1.40;0.60;;;;;;;9.03;77.11;95210.28;2066337;28;20210;-64
2024/04/01 12:56:03;;;;;;;1.00;0.50;;;;;;;9.13;76.73;95213.16;2060772;28;20681;-64
2024/04/01 12:57:27;;;;;;;1.13;0.50;;;;;;;9.13;75.73;95213.16;2055924;28;20677;-64
2024/04/01 12:58:37;;;;;;;1.10;0.50;;;;;;;9.03;75.83;95220.69;2048279;28;20218;-64
2024/04/01 12:59:45;;;;;;;1.00;0.50;;;;;;;9.04;76.55;95230.19;2056615;28;20210;-63
2024/04/01 13:01:08;;;;;;;1.10;0.60;;;;;;;9.08;76.88;95225.63;2054272;28;20309;-64
2024/04/01 13:02:58;;;;;;;1.10;0.68;;;;;;;8.93;77.52;95237.81;2059115;28;20221;-64
2024/04/01 13:04:01;;;;;;;1.60;0.70;;;;;;;8.97;77.43;95242.72;2059049;28;20831;-64
2024/04/01 13:05:21;;;;;;;1.52;0.60;;;;;;;9.12;77.29;95240.94;2054023;28;20207;-64
2024/04/01 13:06:33;;;;;;;1.10;0.50;;;;;;;8.94;77.01;95275.94;2054153;28;20227;-64
2024/04/01 13:07:54;;;;;;;1.10;0.50;;;;;;;8.70;77.11;95258.22;2054188;28;20207;-63
2024/04/01 13:09:10;;;;;;;1.00;0.50;;;;;;;8.63;77.33;95260.38;2060701;28;20214;-63
2024/04/01 13:10:27;;;;;;;1.10;0.55;;;;;;;8.90;77.30;95249.25;2052786;28;20677;-63
2024/04/01 13:12:04;;;;;;;1.00;0.50;;;;;;;8.80;76.82;95256.75;2053298;28;20637;-64
2024/04/01 13:13:36;;;;;;;1.20;0.70;;;;;;;9.38;75.66;95259.34;2058982;28;20265;-64
2024/04/01 13:15:02;;;;;;;1.10;0.60;;;;;;;9.55;75.43;95257.44;2063359;28;20631;-64
2024/04/01 13:16:32;;;;;;;1.10;0.50;;;;;;;9.59;74.65;95258.94;2059077;28;20237;-64
2024/04/01 13:17:46;;;;;;;1.10;0.60;;;;;;;9.38;74.13;95251.53;2057224;28;20273;-63
2024/04/01 13:19:24;;;;;;;1.20;0.50;;;;;;;9.29;74.66;95262.50;2053842;28;20211;-63
2024/04/01 13:20:33;;;;;;;1.55;0.60;;;;;;;9.22;74.31;95258.59;2049832;28;20219;-63
2024/04/01 13:21:44;;;;;;;1.20;0.60;;;;;;;9.04;73.93;95264.03;2044923;28;20212;-64
2024/04/01 13:22:53;;;;;;;1.65;0.50;;;;;;;9.11;74.42;95257.50;2056517;28;20226;-64
2024/04/01 13:24:07;;;;;;;1.10;0.50;;;;;;;9.45;73.87;95263.25;2058541;28;20672;-64
2024/04/01 13:25:12;;;;;;;1.83;1.33;;;;;;;9.55;73.96;95266.13;2054402;28;20210;-64
2024/04/01 13:26:24;;;;;;;1.30;0.60;;;;;;;9.47;73.72;95266.59;2052502;28;20227;-64
2024/04/01 13:27:54;;;;;;;1.00;0.50;;;;;;;9.28;74.65;95253.88;2054372;28;20214;-64
2024/04/01 13:28:58;;;;;;;1.00;0.50;;;;;;;9.27;74.70;95259.19;2059879;28;20209;-64
2024/04/01 13:30:12;;;;;;;1.10;0.50;;;;;;;9.17;74.88;95243.28;2056313;28;20641;-64
2024/04/01 13:31:32;;;;;;;1.58;0.50;;;;;;;10.16;73.47;95257.06;2044795;28;20241;-64
2024/04/01 13:32:48;;;;;;;1.13;0.50;;;;;;;10.31;71.31;95258.72;2057771;28;20218;-64
2024/04/01 13:33:59;;;;;;;1.10;0.50;;;;;;;9.77;72.07;95262.16;2059298;28;20233;-64
2024/04/01 13:35:22;;;;;;;1.00;0.50;;;;;;;10.04;72.22;95263.94;2056834;28;20210;-64
2024/04/01 13:36:56;;;;;;;1.10;0.50;;;;;;;10.23;72.14;95268.78;2056858;28;20221;-64
2024/04/01 13:38:19;;;;;;;1.30;0.50;;;;;;;10.03;71.76;95262.25;2060044;28;20206;-64
2024/04/01 13:39:44;;;;;;;1.05;0.50;;;;;;;10.13;71.13;95265.94;2060318;28;20207;-64
2024/04/01 13:40:51;;;;;;;2.10;0.90;;;;;;;10.30;71.22;95268.28;2058447;28;20332;-64
2024/04/01 13:42:00;;;;;;;2.10;0.65;;;;;;;10.47;70.80;95268.97;2056520;28;20215;-64
2024/04/01 13:43:12;;;;;;;1.20;0.60;;;;;;;10.70;70.09;95264.00;2063516;28;20557;-64
2024/04/01 13:44:27;;;;;;;1.77;0.60;;;;;;;10.28;70.42;95279.75;2060932;28;20645;-65
2024/04/01 13:46:02;;;;;;;1.20;0.60;;;;;;;10.50;70.05;95284.47;2053768;28;20207;-64
2024/04/01 13:47:30;;;;;;;1.02;0.60;;;;;;;10.41;70.08;95270.25;2057826;28;20206;-64
2024/04/01 13:48:52;;;;;;;1.95;0.70;;;;;;;10.78;69.38;95275.63;2057035;28;20672;-65
2024/04/01 13:50:02;;;;;;;2.55;0.60;;;;;;;10.17;69.28;95284.84;2055035;28;20531;-65
2024/04/01 13:51:14;;;;;;;2.38;0.60;;;;;;;10.25;69.04;95287.81;2055706;28;20227;-64
2024/04/01 13:52:34;;;;;;;1.58;0.60;;;;;;;10.35;68.68;95273.22;2061774;28;20242;-64
2024/04/01 13:53:45;;;;;;;1.60;0.70;;;;;;;10.71;68.11;95274.34;2050220;28;20220;-64
2024/04/01 13:54:58;;;;;;;1.10;0.52;;;;;;;10.60;67.30;95272.47;2047477;28;20207;-64
2024/04/01 13:56:27;;;;;;;2.05;0.60;;;;;;;10.36;68.00;95274.94;2051508;28;20228;-64
2024/04/01 13:57:50;;;;;;;1.20;0.50;;;;;;;10.82;68.53;95286.69;2057728;28;20203;-64
2024/04/01 13:59:02;;;;;;;1.10;0.50;;;;;;;10.87;67.65;95283.75;2056508;28;20209;-64
2024/04/01 14:00:12;;;;;;;6.38;0.77;;;;;;;10.68;67.90;95289.38;2053287;28;20207;-64
2024/04/01 14:01:49;;;;;;;3.67;1.30;;;;;;;11.01;67.60;95288.03;2053551;28;20809;-64
2024/04/01 14:03:07;;;;;;;6.93;3.45;;;;;;;10.57;66.14;95277.88;2041783;28;20208;-64
2024/04/01 14:04:26;;;;;;;2.42;1.10;;;;;;;10.19;67.30;95290.81;2061931;28;20214;-64
2024/04/01 14:05:56;;;;;;;1.98;0.82;;;;;;;10.72;68.05;95296.91;2053482;28;20205;-65
2024/04/01 14:07:21;;;;;;;6.15;0.68;;;;;;;10.43;66.60;95286.63;2056746;28;20767;-64
2024/04/01 14:08:37;;;;;;;1.50;0.60;;;;;;;10.26;66.66;95281.66;2055324;28;20215;-65
2024/04/01 14:10:01;;;;;;;1.30;0.70;;;;;;;10.23;66.28;95279.22;2055696;28;20210;-64
2024/04/01 14:11:24;;;;;;;2.22;0.80;;;;;;;10.33;66.57;95267.25;2051910;28;20218;-64
2024/04/01 14:12:52;;;;;;;2.22;0.73;;;;;;;10.14;66.87;95275.44;2053926;28;20603;-65
2024/04/01 14:14:12;;;;;;;2.58;0.93;;;;;;;9.86;67.47;95279.00;2054556;28;20227;-64
2024/04/01 14:15:37;;;;;;;1.30;0.70;;;;;;;9.74;68.54;95284.03;2055096;28;20534;-64
2024/04/01 14:17:10;;;;;;;4.20;1.00;;;;;;;9.67;68.18;95280.16;2056295;28;20741;-64
2024/04/01 14:18:19;;;;;;;1.33;0.60;;;;;;;9.58;68.80;95278.94;2055944;28;20207;-64
2024/04/01 14:19:53;;;;;;;1.20;0.50;;;;;;;9.58;69.72;95272.91;2053724;28;20641;-65
2024/04/01 14:20:54;;;;;;;1.20;0.60;;;;;;;9.70;69.88;95279.13;2055623;28;20249;-65
2024/04/01 14:21:55;;;;;;;3.00;0.60;;;;;;;9.75;70.18;95282.25;2051812;28;20207;-66
2024/04/01 14:22:57;;;;;;;7.57;0.90;;;;;;;9.68;70.39;95275.78;2053517;28;20464;-64
2024/04/01 14:23:57;;;;;;;1.70;0.70;;;;;;;9.70;70.32;95279.13;2053839;28;20215;-64
2024/04/01 14:25:00;;;;;;;1.80;0.53;;;;;;;9.77;70.56;95283.00;2051608;28;20196;-65
2024/04/01 14:26:03;;;;;;;5.35;0.75;;;;;;;9.80;70.62;95283.66;2048411;28;20219;-65
2024/04/01 14:27:03;;;;;;;2.30;0.60;;;;;;;9.60;71.36;95282.31;2059320;28;20222;-64
2024/04/01 14:28:04;;;;;;;1.60;0.60;;;;;;;9.56;71.48;95285.19;2050943;28;20225;-65
2024/04/01 14:29:04;;;;;;;1.43;0.63;;;;;;;9.52;71.96;95289.75;2058808;28;20309;-65
2024/04/01 14:30:07;;;;;;;1.00;0.50;;;;;;;9.36;72.35;95287.28;2052226;28;20276;-65
2024/04/01 14:31:08;;;;;;;1.25;0.60;;;;;;;9.38;72.26;95288.00;2051750;28;20934;-65
2024/04/01 14:32:08;;;;;;;1.17;0.53;;;;;;;9.47;72.84;95297.00;2051421;28;20218;-65
2024/04/01 14:33:12;;;;;;;3.37;0.60;;;;;;;9.54;73.67;95295.72;2053074;28;20207;-64
2024/04/01 14:34:13;;;;;;;1.10;0.60;;;;;;;9.59;73.11;95300.66;2055746;28;20591;-65
2024/04/01 14:35:14;;;;;;;1.42;0.60;;;;;;;9.60;72.92;95299.72;2055215;28;20289;-65
2024/04/01 14:36:14;;;;;;;2.00;0.70;;;;;;;9.69;73.09;95300.88;2051475;28;20266;-65
2024/04/01 14:37:16;;;;;;;3.27;0.80;;;;;;;9.66;73.26;95301.91;2048978;28;20494;-65
2024/04/01 14:38:17;;;;;;;6.15;3.72;;;;;;;9.48;73.25;95294.34;2050667;28;20219;-66
2024/04/01 14:39:18;;;;;;;5.63;2.05;;;;;;;9.41;73.60;95300.03;2058144;28;20199;-66
2024/04/01 14:40:20;;;;;;;15.13;6.68;;;;;;;9.40;74.26;95304.38;2052659;28;20253;-65
2024/04/01 14:41:21;;;;;;;5.68;1.85;;;;;;;9.30;73.94;95291.06;2060768;28;20249;-65
2024/04/01 14:42:23;;;;;;;1.65;0.75;;;;;;;9.37;74.06;95303.72;2051938;28;20223;-65
2024/04/01 14:43:24;;;;;;;1.98;0.75;;;;;;;9.25;74.30;95311.34;2051357;28;20258;-65
2024/04/01 14:44:25;;;;;;;3.40;0.60;;;;;;;9.24;74.22;95308.84;2050877;28;20203;-65
2024/04/01 14:45:26;;;;;;;1.60;0.60;;;;;;;9.25;74.19;95311.34;2058323;28;20215;-65
2024/04/01 14:46:28;;;;;;;2.87;0.80;;;;;;;9.19;74.28;95300.47;2058709;28;20852;-65
2024/04/01 14:47:28;;;;;;;3.17;0.60;;;;;;;9.07;74.79;95305.50;2059648;28;20213;-65
2024/04/01 14:48:29;;;;;;;3.73;0.70;;;;;;;9.13;75.11;95305.13;2051961;28;20267;-65
2024/04/01 14:49:30;;;;;;;4.57;0.93;;;;;;;9.18;75.61;95315.28;2052121;28;20211;-65
2024/04/01 14:50:32;;;;;;;4.32;1.25;;;;;;;9.11;75.23;95304.38;2059120;28;20206;-65
2024/04/01 14:51:32;;;;;;;3.22;1.20;;;;;;;9.14;75.18;95317.22;2061072;28;20209;-64
2024/04/01 14:52:34;;;;;;;2.73;1.30;;;;;;;9.07;75.28;95313.31;2055105;28;20199;-65
2024/04/01 14:53:35;;;;;;;4.32;1.10;;;;;;;9.17;75.59;95310.13;2054968;28;20685;-64
2024/04/01 14:54:36;;;;;;;4.32;1.05;;;;;;;9.11;75.30;95313.97;2052860;28;21132;-64
2024/04/01 14:55:39;;;;;;;1.55;0.60;;;;;;;9.11;75.06;95303.56;2050839;28;20235;-65
2024/04/01 14:56:41;;;;;;;2.35;0.60;;;;;;;9.12;74.60;95316.47;2063072;28;20724;-65
2024/04/01 14:57:42;;;;;;;2.05;0.80;;;;;;;9.13;74.70;95312.94;2058602;28;20210;-65
2024/04/01 14:58:43;;;;;;;1.80;0.90;;;;;;;9.14;74.88;95303.34;2050635;28;20234;-65
2024/04/01 14:59:44;;;;;;;2.55;0.75;;;;;;;9.09;75.03;95302.78;2050969;28;20449;-65
2024/04/01 15:00:45;;;;;;;1.33;0.60;;;;;;;9.11;75.06;95314.78;2046833;28;20230;-65
2024/04/01 15:01:46;;;;;;;1.40;0.60;;;;;;;9.01;74.41;95316.28;2047520;28;20619;-65
2024/04/01 15:06:09;;;;;;;2.33;0.80;;;;;;;8.99;75.40;95307.75;2083326;27;20565;-65
2024/04/01 15:07:12;;;;;;;2.67;0.80;;;;;;;9.03;75.33;95313.56;2082388;28;20205;-65
2024/04/01 15:08:12;;;;;;;3.65;0.80;;;;;;;8.99;75.40;95308.56;2077994;28;20205;-65
2024/04/01 15:12:27;;;;;;;1.27;0.60;;;;;;;8.94;75.56;95318.41;2089334;28;20558;-64
2024/04/01 15:13:27;;;;;;;2.37;0.60;;;;;;;8.99;76.15;95323.34;2094279;28;20208;-65
2024/04/01 15:17:36;;;;;;;1.38;0.60;;;;;;;8.72;75.78;95334.44;2108617;27;20619;-64
2024/04/01 15:21:35;;;;;;;1.50;0.57;;;;;;;8.56;76.29;95331.91;2084756;28;20563;-64
2024/04/01 15:22:35;;;;;;;1.00;0.50;;;;;;;8.58;76.34;95331.81;2073631;28;20210;-64
2024/04/01 15:26:38;;;;;;;1.85;0.60;;;;;;;8.62;76.73;95339.38;2102692;27;20563;-65
2024/04/01 15:30:20;;;;;;;1.10;0.60;;;;;;;8.45;76.88;95335.06;2092299;27;20570;-64
2024/04/01 15:34:19;;;;;;;8.38;1.00;;;;;;;8.43;77.66;95342.16;2090129;28;20566;-64
2024/04/01 15:38:24;;;;;;;3.65;1.70;;;;;;;8.58;78.04;95342.22;2090237;28;20548;-65
2024/04/01 16:27:22;;;;;;;1.40;0.75;;;;;;;8.65;78.75;95326.16;2116100;27;20567;-65
2024/04/01 16:30:19;;;;;;;1.50;0.60;;;;;;;8.63;78.26;95325.44;2083615;28;20587;-64
2024/04/01 16:33:08;;;;;;;1.20;0.60;;;;;;;8.71;78.49;95321.53;2084646;28;20632;-65
2024/04/01 16:36:01;;;;;;;1.50;0.60;;;;;;;8.74;78.19;95334.38;2077741;28;21008;-65
